createdAt,value
2018-07-26T00:00:30.497Z,23.45
2018-07-26T00:03:00.195Z,23.33
2018-07-26T00:05:29.926Z,23.22
2018-07-26T00:07:59.656Z,23.07
2018-07-26T00:10:29.456Z,22.93
2018-07-26T00:12:59.184Z,22.80
2018-07-26T00:15:28.856Z,22.69
2018-07-26T00:17:58.734Z,22.60
2018-07-26T00:20:28.606Z,22.50
2018-07-26T00:22:58.262Z,22.45
2018-07-26T00:25:28.022Z,22.37
2018-07-26T00:27:57.712Z,22.33
2018-07-26T00:30:27.416Z,22.24
2018-07-26T00:32:57.150Z,22.19
2018-07-26T00:35:26.581Z,22.15
2018-07-26T00:37:56.320Z,22.06
2018-07-26T00:40:26.220Z,21.99
2018-07-26T00:42:55.915Z,21.97
2018-07-26T00:45:25.593Z,22.13
2018-07-26T00:47:55.441Z,22.14
2018-07-26T00:50:25.162Z,22.11
2018-07-26T00:52:54.926Z,22.13
2018-07-26T00:55:24.867Z,22.05
2018-07-26T00:57:54.619Z,22.14
2018-07-26T01:00:24.640Z,22.35
2018-07-26T01:02:54.352Z,22.29
2018-07-26T01:05:24.354Z,22.15
2018-07-26T01:07:54.090Z,22.06
2018-07-26T01:10:23.933Z,21.99
2018-07-26T01:12:53.785Z,21.90
2018-07-26T01:15:23.456Z,21.81
2018-07-26T01:17:53.284Z,21.67
2018-07-26T01:20:23.048Z,21.54
2018-07-26T01:22:52.874Z,21.45
2018-07-26T01:25:22.600Z,21.38
2018-07-26T01:27:52.334Z,21.30
2018-07-26T01:30:22.100Z,21.25
2018-07-26T01:32:51.870Z,21.22
2018-07-26T01:35:21.652Z,21.16
2018-07-26T01:37:51.415Z,21.11
2018-07-26T01:40:21.081Z,21.07
2018-07-26T01:43:01.623Z,21.04
2018-07-26T01:45:31.272Z,21.03
2018-07-26T01:48:00.922Z,20.97
2018-07-26T01:50:30.652Z,20.97
2018-07-26T01:53:00.340Z,21.03
2018-07-26T01:55:30.097Z,21.17
2018-07-26T01:57:59.896Z,21.15
2018-07-26T02:00:30.633Z,21.13
2018-07-26T02:03:00.337Z,21.06
2018-07-26T02:05:30.089Z,21.02
2018-07-26T02:07:59.756Z,21.00
2018-07-26T02:10:29.528Z,20.94
2018-07-26T02:12:59.268Z,20.88
2018-07-26T02:15:29.017Z,20.81
2018-07-26T02:17:58.738Z,20.80
2018-07-26T02:20:28.413Z,20.81
2018-07-26T02:22:58.192Z,20.74
2018-07-26T02:25:27.849Z,20.72
2018-07-26T02:27:57.629Z,20.67
2018-07-26T02:30:27.342Z,20.62
2018-07-26T02:32:57.035Z,20.58
2018-07-26T02:35:27.021Z,20.52
2018-07-26T02:37:56.737Z,20.51
2018-07-26T02:40:26.366Z,20.50
2018-07-26T02:42:56.022Z,20.48
2018-07-26T02:45:25.714Z,20.48
2018-07-26T02:47:55.413Z,20.42
2018-07-26T02:50:25.291Z,20.35
2018-07-26T02:52:55.053Z,20.35
2018-07-26T02:55:24.707Z,20.26
2018-07-26T02:57:54.641Z,20.21
2018-07-26T03:00:24.321Z,20.17
2018-07-26T03:02:54.107Z,20.13
2018-07-26T03:05:23.822Z,20.13
2018-07-26T03:07:53.570Z,20.10
2018-07-26T03:10:23.307Z,20.23
2018-07-26T03:12:52.990Z,20.41
2018-07-26T03:15:22.789Z,20.38
2018-07-26T03:17:52.439Z,20.42
2018-07-26T03:20:22.205Z,20.36
2018-07-26T03:22:51.869Z,20.22
2018-07-26T03:25:21.805Z,20.11
2018-07-26T03:27:51.495Z,20.01
2018-07-26T03:30:21.150Z,19.97
2018-07-26T03:32:50.928Z,19.92
2018-07-26T03:35:20.626Z,19.86
2018-07-26T03:37:50.284Z,19.84
2018-07-26T03:40:20.037Z,19.87
2018-07-26T03:42:49.731Z,19.78
2018-07-26T03:45:19.469Z,19.75
2018-07-26T03:47:49.180Z,19.73
2018-07-26T03:50:18.905Z,19.73
2018-07-26T03:52:48.677Z,19.76
2018-07-26T03:55:18.319Z,19.73
2018-07-26T03:57:48.051Z,19.93
2018-07-26T04:00:17.760Z,19.90
2018-07-26T04:02:47.453Z,19.90
2018-07-26T04:05:17.134Z,19.93
2018-07-26T04:07:46.914Z,20.06
2018-07-26T04:10:16.629Z,20.04
2018-07-26T04:12:46.333Z,19.96
2018-07-26T04:15:16.169Z,19.91
2018-07-26T04:17:49.106Z,20.06
2018-07-26T04:20:18.872Z,20.06
2018-07-26T04:22:48.554Z,20.16
2018-07-26T04:25:18.291Z,20.14
2018-07-26T04:27:48.055Z,20.22
2018-07-26T04:30:17.735Z,20.21
2018-07-26T04:32:47.128Z,20.22
2018-07-26T04:35:17.183Z,20.22
2018-07-26T04:37:46.885Z,20.23
2018-07-26T04:40:16.780Z,20.27
2018-07-26T04:42:46.499Z,20.39
2018-07-26T04:45:16.211Z,20.45
2018-07-26T04:47:45.871Z,20.53
2018-07-26T04:50:15.556Z,20.57
2018-07-26T04:52:45.397Z,20.66
2018-07-26T04:55:15.142Z,20.78
2018-07-26T04:57:45.097Z,20.90
2018-07-26T05:00:14.847Z,21.04
2018-07-26T05:02:44.590Z,21.22
2018-07-26T05:05:14.287Z,21.36
2018-07-26T05:07:43.964Z,21.49
2018-07-26T05:10:13.649Z,21.71
2018-07-26T05:12:43.356Z,21.99
2018-07-26T05:15:13.042Z,22.32
2018-07-26T05:17:42.857Z,22.65
2018-07-26T05:20:12.576Z,22.93
2018-07-26T05:22:42.321Z,23.29
2018-07-26T05:25:11.953Z,23.42
2018-07-26T05:27:41.668Z,23.71
2018-07-26T05:30:11.415Z,23.75
2018-07-26T05:32:41.109Z,23.76
2018-07-26T05:35:10.824Z,23.88
2018-07-26T05:37:40.471Z,23.88
2018-07-26T05:40:10.225Z,24.08
2018-07-26T05:42:39.556Z,24.26
2018-07-26T05:45:09.329Z,24.44
2018-07-26T05:47:39.149Z,24.62
2018-07-26T05:50:10.141Z,24.90
2018-07-26T05:52:40.135Z,25.04
2018-07-26T05:55:10.692Z,25.38
2018-07-26T05:57:40.328Z,25.61
2018-07-26T06:00:12.760Z,25.73
2018-07-26T06:02:44.256Z,25.83
2018-07-26T06:05:14.031Z,25.95
2018-07-26T06:07:43.785Z,25.92
2018-07-26T06:10:13.677Z,26.23
2018-07-26T06:12:43.396Z,26.41
2018-07-26T06:15:13.608Z,26.72
2018-07-26T06:24:30.821Z,27.03
2018-07-26T06:27:00.713Z,27.12
2018-07-26T06:29:30.433Z,27.03
2018-07-26T06:32:00.167Z,26.98
2018-07-26T06:34:29.840Z,27.20
2018-07-26T06:36:59.635Z,27.25
2018-07-26T06:39:29.410Z,27.07
2018-07-26T06:41:59.088Z,27.05
2018-07-26T06:44:28.933Z,27.01
2018-07-26T06:46:58.595Z,27.21
2018-07-26T06:49:28.324Z,27.89
2018-07-26T06:51:58.002Z,28.03
2018-07-26T06:54:28.487Z,28.54
2018-07-26T06:56:58.335Z,28.81
2018-07-26T06:59:28.197Z,28.99
2018-07-26T07:01:57.886Z,29.59
2018-07-26T07:04:27.617Z,30.08
2018-07-26T07:06:57.356Z,30.21
2018-07-26T07:09:27.030Z,30.82
2018-07-26T07:11:56.786Z,30.68
2018-07-26T07:14:26.241Z,30.91
2018-07-26T07:16:55.906Z,31.71
2018-07-26T07:19:25.740Z,32.26
2018-07-26T07:21:55.570Z,32.63
2018-07-26T07:24:25.298Z,33.21
2018-07-26T07:26:54.986Z,32.91
2018-07-26T07:29:24.767Z,33.60
2018-07-26T07:31:54.581Z,33.96
2018-07-26T07:34:23.968Z,34.52
2018-07-26T07:36:53.718Z,35.65
2018-07-26T07:39:23.474Z,35.82
2018-07-26T07:41:53.312Z,36.37
2018-07-26T07:44:23.196Z,36.63
2018-07-26T07:46:52.890Z,36.93
2018-07-26T07:49:22.610Z,36.92
2018-07-26T07:51:52.355Z,38.07
2018-07-26T07:54:22.187Z,37.68
2018-07-26T07:56:52.059Z,37.58
2018-07-26T07:59:21.813Z,38.14
2018-07-26T08:01:51.543Z,37.63
2018-07-26T08:04:21.446Z,38.23
2018-07-26T08:06:51.238Z,38.05
2018-07-26T08:09:20.852Z,38.16
2018-07-26T08:11:50.639Z,38.77
2018-07-26T08:14:20.014Z,38.27
2018-07-26T08:16:49.768Z,39.17
2018-07-26T08:19:19.433Z,39.92
2018-07-26T08:21:49.116Z,38.94
2018-07-26T08:24:21.681Z,38.61
2018-07-26T08:26:52.416Z,40.32
2018-07-26T08:29:22.656Z,40.13
2018-07-26T08:31:52.712Z,40.26
2018-07-26T08:34:22.941Z,39.63
2018-07-26T08:36:52.843Z,41.13
2018-07-26T08:39:22.561Z,40.42
2018-07-26T08:41:52.321Z,40.93
2018-07-26T08:44:22.866Z,40.52
2018-07-26T08:46:52.757Z,40.85
2018-07-26T08:49:22.612Z,40.78
2018-07-26T08:51:52.313Z,40.57
2018-07-26T08:54:22.060Z,39.32
2018-07-26T08:56:51.768Z,37.80
2018-07-26T08:59:21.649Z,37.66
2018-07-26T09:01:51.363Z,38.05
2018-07-26T09:04:22.411Z,38.39
2018-07-26T09:06:52.231Z,39.70
2018-07-26T09:09:22.006Z,41.27
2018-07-26T09:11:51.789Z,40.85
2018-07-26T09:14:21.835Z,41.64
2018-07-26T09:16:51.531Z,41.51
2018-07-26T09:19:21.306Z,41.45
2018-07-26T09:21:51.190Z,41.97
2018-07-26T09:24:20.732Z,42.93
2018-07-26T09:26:50.551Z,42.79
2018-07-26T09:29:20.319Z,42.13
2018-07-26T09:31:50.061Z,42.62
2018-07-26T09:34:19.817Z,42.69
2018-07-26T09:36:49.644Z,42.03
2018-07-26T09:39:19.394Z,43.14
2018-07-26T09:41:48.750Z,42.88
2018-07-26T09:44:18.447Z,42.99
2018-07-26T09:46:48.142Z,43.01
2018-07-26T09:49:18.032Z,41.58
2018-07-26T09:51:47.792Z,42.76
2018-07-26T09:54:17.496Z,44.49
2018-07-26T09:56:47.309Z,44.17
2018-07-26T09:59:17.085Z,43.41
2018-07-26T10:01:46.758Z,43.00
2018-07-26T10:04:16.518Z,42.91
2018-07-26T10:06:46.182Z,41.51
2018-07-26T10:09:15.836Z,42.58
2018-07-26T10:11:45.598Z,42.15
2018-07-26T10:14:15.228Z,42.12
2018-07-26T10:16:45.179Z,42.06
2018-07-26T10:19:14.967Z,42.61
2018-07-26T10:21:44.873Z,42.19
2018-07-26T10:24:14.566Z,41.46
2018-07-26T10:26:44.254Z,42.52
2018-07-26T10:29:14.041Z,42.76
2018-07-26T10:31:43.731Z,42.90
2018-07-26T10:34:14.477Z,41.89
2018-07-26T10:36:44.187Z,42.85
2018-07-26T10:39:13.913Z,42.00
2018-07-26T10:41:43.622Z,42.75
2018-07-26T10:44:13.404Z,44.15
2018-07-26T10:46:43.225Z,42.21
2018-07-26T10:49:12.938Z,43.52
2018-07-26T10:51:45.987Z,43.25
2018-07-26T10:54:17.673Z,42.33
2018-07-26T10:56:47.769Z,43.09
2018-07-26T10:59:17.816Z,42.63
2018-07-26T11:01:48.496Z,43.21
2018-07-26T11:04:18.261Z,43.30
2018-07-26T11:06:48.181Z,43.51
2018-07-26T11:09:17.851Z,41.07
2018-07-26T11:11:47.727Z,41.23
2018-07-26T11:14:17.416Z,42.27
2018-07-26T11:16:47.090Z,41.95
2018-07-26T11:19:16.758Z,43.35
2018-07-26T11:21:46.482Z,43.51
2018-07-26T11:24:16.190Z,42.57
2018-07-26T11:26:45.909Z,44.00
2018-07-26T11:29:16.221Z,42.71
2018-07-26T11:31:45.946Z,42.29
2018-07-26T11:34:15.674Z,41.18
2018-07-26T11:36:45.513Z,41.64
2018-07-26T11:39:15.186Z,40.47
2018-07-26T11:41:44.977Z,40.16
2018-07-26T11:44:14.657Z,40.35
2018-07-26T11:46:44.352Z,41.15
2018-07-26T11:49:14.075Z,42.58
2018-07-26T11:51:43.782Z,42.55
2018-07-26T11:54:13.597Z,41.85
2018-07-26T11:56:43.302Z,40.39
2018-07-26T11:59:12.969Z,38.94
2018-07-26T12:01:42.707Z,40.01
2018-07-26T12:04:12.390Z,41.40
2018-07-26T12:06:42.192Z,42.40
2018-07-26T12:09:12.019Z,42.05
2018-07-26T12:11:41.840Z,42.89
2018-07-26T12:14:12.419Z,42.81
2018-07-26T12:16:42.122Z,43.63
2018-07-26T12:19:11.905Z,44.03
2018-07-26T12:21:41.751Z,43.30
2018-07-26T12:24:11.462Z,43.60
2018-07-26T12:26:41.189Z,43.10
2018-07-26T12:29:10.898Z,43.70
2018-07-26T12:31:40.806Z,42.89
2018-07-26T12:34:10.994Z,42.56
2018-07-26T12:36:40.839Z,42.45
2018-07-26T12:39:12.712Z,41.97
2018-07-26T12:41:42.496Z,42.99
2018-07-26T12:44:12.302Z,43.45
2018-07-26T12:46:42.077Z,44.08
2018-07-26T12:49:11.919Z,43.80
2018-07-26T12:51:41.694Z,43.06
2018-07-26T12:54:11.540Z,40.92
2018-07-26T12:56:41.390Z,41.48
2018-07-26T12:59:11.299Z,43.14
2018-07-26T13:01:41.019Z,43.03
2018-07-26T13:04:10.758Z,42.41
2018-07-26T13:06:40.563Z,41.78
2018-07-26T13:09:11.056Z,41.22
2018-07-26T13:11:47.924Z,40.21
2018-07-26T13:14:17.408Z,40.46
2018-07-26T13:16:47.185Z,40.15
2018-07-26T13:19:16.930Z,39.23
2018-07-26T13:21:46.654Z,38.69
2018-07-26T13:24:16.553Z,38.68
2018-07-26T13:26:46.326Z,38.97
2018-07-26T13:29:16.065Z,39.31
2018-07-26T13:31:45.765Z,40.67
2018-07-26T13:34:15.115Z,40.22
2018-07-26T13:36:44.893Z,41.17
2018-07-26T13:39:14.885Z,42.04
2018-07-26T13:41:44.611Z,42.41
2018-07-26T13:44:14.398Z,42.05
2018-07-26T13:46:44.211Z,43.05
2018-07-26T13:49:13.962Z,43.99
2018-07-26T13:51:43.731Z,44.20
2018-07-26T13:54:13.458Z,44.66
2018-07-26T13:56:43.229Z,42.48
2018-07-26T13:59:12.945Z,42.61
2018-07-26T14:01:42.738Z,41.09
2018-07-26T14:04:12.482Z,40.64
2018-07-26T14:06:42.233Z,39.43
2018-07-26T14:09:12.655Z,38.76
2018-07-26T14:11:42.876Z,38.31
2018-07-26T14:14:12.577Z,37.80
2018-07-26T14:16:42.308Z,37.45
2018-07-26T14:19:12.014Z,38.53
2018-07-26T14:21:41.761Z,37.75
2018-07-26T14:24:16.735Z,38.52
2018-07-26T14:26:46.463Z,37.91
2018-07-26T14:29:16.877Z,37.54
2018-07-26T14:31:46.584Z,37.77
2018-07-26T14:34:16.286Z,37.44
2018-07-26T14:36:46.351Z,37.33
2018-07-26T14:39:16.073Z,37.55
2018-07-26T14:41:45.929Z,37.30
2018-07-26T14:44:15.619Z,37.10
2018-07-26T14:46:45.344Z,36.87
2018-07-26T14:49:15.082Z,36.75
2018-07-26T14:51:45.032Z,36.41
2018-07-26T14:54:14.701Z,36.45
2018-07-26T14:56:44.436Z,36.52
2018-07-26T14:59:14.178Z,36.58
2018-07-26T15:01:43.937Z,36.76
2018-07-26T15:04:13.322Z,36.68
2018-07-26T15:06:43.063Z,36.80
2018-07-26T15:09:12.815Z,36.72
2018-07-26T15:11:42.822Z,36.85
2018-07-26T15:14:12.529Z,36.57
2018-07-26T15:16:42.156Z,37.10
2018-07-26T15:19:11.919Z,37.90
2018-07-26T15:21:41.626Z,39.40
2018-07-26T15:24:11.384Z,39.47
2018-07-26T15:26:41.045Z,38.41
2018-07-26T15:29:10.743Z,37.83
2018-07-26T15:31:40.546Z,37.27
2018-07-26T15:34:10.251Z,37.15
2018-07-26T15:36:39.988Z,37.09
2018-07-26T15:39:11.021Z,36.87
2018-07-26T15:41:44.494Z,36.62
2018-07-26T15:44:15.845Z,36.72
2018-07-26T15:46:45.573Z,36.64
2018-07-26T15:49:15.294Z,36.82
2018-07-26T15:51:44.959Z,36.52
2018-07-26T15:54:14.289Z,37.02
2018-07-26T15:56:44.047Z,38.10
2018-07-26T15:59:13.855Z,37.66
2018-07-26T16:01:43.595Z,37.31
2018-07-26T16:04:13.464Z,36.96
2018-07-26T16:06:43.173Z,36.63
2018-07-26T16:09:13.279Z,36.35
2018-07-26T16:11:42.980Z,36.21
2018-07-26T16:14:12.766Z,36.09
2018-07-26T16:16:42.590Z,36.01
2018-07-26T16:19:12.302Z,35.71
2018-07-26T16:21:42.065Z,35.60
2018-07-26T16:24:11.754Z,35.37
2018-07-26T16:26:41.466Z,35.23
2018-07-26T16:29:10.915Z,35.07
2018-07-26T16:31:40.630Z,35.15
2018-07-26T16:34:10.517Z,34.89
2018-07-26T16:36:40.207Z,34.59
2018-07-26T16:39:11.912Z,34.70
2018-07-26T16:41:41.690Z,34.77
2018-07-26T16:44:11.142Z,34.63
2018-07-26T16:46:40.846Z,34.33
2018-07-26T16:49:10.543Z,34.34
2018-07-26T16:51:40.290Z,34.14
2018-07-26T16:54:10.673Z,34.28
2018-07-26T16:56:40.478Z,34.24
2018-07-26T16:59:09.858Z,34.32
2018-07-26T17:01:39.599Z,34.31
2018-07-26T17:04:08.997Z,34.13
2018-07-26T17:06:38.709Z,34.17
2018-07-26T17:09:10.843Z,34.00
2018-07-26T17:11:40.732Z,33.87
2018-07-26T17:14:10.562Z,33.80
2018-07-26T17:16:40.306Z,33.73
2018-07-26T17:19:10.201Z,33.60
2018-07-26T17:21:39.617Z,33.59
2018-07-26T17:24:09.404Z,33.28
2018-07-26T17:26:39.171Z,33.15
2018-07-26T17:29:09.091Z,32.92
2018-07-26T17:31:38.888Z,32.74
2018-07-26T17:34:08.597Z,32.55
2018-07-26T17:36:38.349Z,32.31
2018-07-26T17:39:09.356Z,32.43
2018-07-26T17:41:39.436Z,32.38
2018-07-26T17:44:09.125Z,32.31
2018-07-26T17:46:38.992Z,32.31
2018-07-26T17:49:08.763Z,32.19
2018-07-26T17:51:38.525Z,32.04
2018-07-26T17:54:08.333Z,31.81
2018-07-26T17:56:38.248Z,31.55
2018-07-26T17:59:08.216Z,31.45
2018-07-26T18:01:37.989Z,31.54
2018-07-26T18:04:07.866Z,31.54
2018-07-26T18:06:37.731Z,31.35
2018-07-26T18:09:09.109Z,31.18
2018-07-26T18:11:39.117Z,31.14
2018-07-26T18:14:08.897Z,31.12
2018-07-26T18:16:38.630Z,31.00
2018-07-26T18:19:08.346Z,30.95
2018-07-26T18:21:38.143Z,30.87
2018-07-26T18:24:08.373Z,30.85
2018-07-26T18:26:38.118Z,30.87
2018-07-26T18:29:07.805Z,30.91
2018-07-26T18:31:37.694Z,30.88
2018-07-26T18:34:07.242Z,30.75
2018-07-26T18:36:36.897Z,30.65
2018-07-26T18:39:11.139Z,30.61
2018-07-26T18:41:41.040Z,30.63
2018-07-26T18:44:10.563Z,30.45
2018-07-26T18:46:40.300Z,30.41
2018-07-26T18:49:10.324Z,30.23
2018-07-26T18:51:40.096Z,30.11
2018-07-26T18:54:09.918Z,29.94
2018-07-26T18:56:39.616Z,29.75
2018-07-26T18:59:09.343Z,29.56
2018-07-26T19:01:39.320Z,29.36
2018-07-26T19:04:09.282Z,29.22
2018-07-26T19:06:38.772Z,29.17
2018-07-26T19:09:11.447Z,29.18
2018-07-26T19:11:41.830Z,29.21
2018-07-26T19:14:11.599Z,29.25
2018-07-26T19:16:41.288Z,29.12
2018-07-26T19:19:11.037Z,29.04
2018-07-26T19:21:41.040Z,29.02
2018-07-26T19:24:10.844Z,28.88
2018-07-26T19:26:40.958Z,28.68
2018-07-26T19:29:10.685Z,28.55
2018-07-26T19:31:40.441Z,28.38
2018-07-26T19:34:10.287Z,28.23
2018-07-26T19:36:40.161Z,28.09
2018-07-26T19:39:12.154Z,28.00
2018-07-26T19:41:42.878Z,27.84
2018-07-26T19:44:12.962Z,27.75
2018-07-26T19:46:42.764Z,27.88
2018-07-26T19:49:12.596Z,28.03
2018-07-26T19:51:42.412Z,27.94
2018-07-26T19:54:12.374Z,27.82
2018-07-26T19:56:42.126Z,27.83
2018-07-26T19:59:11.955Z,27.77
2018-07-26T20:01:41.885Z,27.58
2018-07-26T20:04:11.809Z,27.38
2018-07-26T20:06:41.574Z,27.21
2018-07-26T20:09:12.003Z,27.09
2018-07-26T20:11:41.787Z,26.91
2018-07-26T20:14:12.304Z,26.75
2018-07-26T20:16:42.116Z,26.59
2018-07-26T20:19:12.293Z,26.47
2018-07-26T20:21:42.023Z,26.37
2018-07-26T20:24:11.920Z,26.33
2018-07-26T20:26:41.795Z,26.22
2018-07-26T20:29:11.470Z,26.11
2018-07-26T20:31:41.364Z,26.02
2018-07-26T20:34:11.160Z,26.15
2018-07-26T20:36:41.104Z,26.08
2018-07-26T20:39:13.637Z,26.06
2018-07-26T20:41:43.446Z,26.04
2018-07-26T20:44:13.512Z,26.20
2018-07-26T20:46:43.191Z,26.19
2018-07-26T20:49:12.963Z,26.11
2018-07-26T20:51:42.850Z,25.98
2018-07-26T20:54:12.634Z,25.88
2018-07-26T20:56:42.346Z,25.81
2018-07-26T20:59:12.117Z,25.75
2018-07-26T21:01:41.832Z,25.73
2018-07-26T21:04:11.757Z,25.68
2018-07-26T21:06:43.062Z,25.76
2018-07-26T21:09:14.204Z,25.78
2018-07-26T21:11:44.781Z,25.67
2018-07-26T21:14:14.705Z,25.53
2018-07-26T21:16:44.406Z,25.44
2018-07-26T21:19:14.171Z,25.33
2018-07-26T21:21:44.011Z,25.19
2018-07-26T21:24:13.786Z,25.13
2018-07-26T21:26:44.477Z,25.05
2018-07-26T21:29:14.313Z,25.09
2018-07-26T21:31:44.247Z,25.26
2018-07-26T21:34:13.964Z,25.39
2018-07-26T21:36:43.714Z,25.49
2018-07-26T21:39:13.427Z,25.36
2018-07-26T21:41:44.333Z,25.26
2018-07-26T21:44:14.073Z,25.20
2018-07-26T21:46:43.813Z,25.25
2018-07-26T21:49:13.554Z,25.11
2018-07-26T21:51:43.254Z,24.95
2018-07-26T21:54:13.054Z,24.81
2018-07-26T21:56:42.806Z,24.69
2018-07-26T21:59:12.650Z,24.59
2018-07-26T22:01:42.430Z,24.50
2018-07-26T22:04:12.250Z,24.44
2018-07-26T22:06:42.022Z,24.43
2018-07-26T22:09:12.424Z,24.39
2018-07-26T22:11:42.141Z,24.31
2018-07-26T22:14:11.856Z,24.24
2018-07-26T22:16:41.612Z,24.25
2018-07-26T22:19:11.334Z,24.20
2018-07-26T22:21:41.222Z,24.14
2018-07-26T22:24:10.929Z,24.16
2018-07-26T22:26:40.629Z,24.17
2018-07-26T22:29:10.397Z,24.21
2018-07-26T22:31:40.193Z,24.18
2018-07-26T22:34:10.297Z,24.07
2018-07-26T22:36:40.215Z,24.02
2018-07-26T22:39:11.264Z,24.02
2018-07-26T22:41:41.562Z,24.04
2018-07-26T22:44:11.357Z,24.05
2018-07-26T22:46:41.129Z,24.07
2018-07-26T22:49:10.973Z,24.13
2018-07-26T22:51:40.751Z,24.11
2018-07-26T22:54:10.661Z,24.17
2018-07-26T22:56:40.007Z,24.17
2018-07-26T22:59:09.728Z,24.13
2018-07-26T23:01:39.751Z,24.06
2018-07-26T23:04:09.616Z,24.03
2018-07-26T23:06:39.354Z,23.94
2018-07-26T23:09:11.007Z,23.83
2018-07-26T23:11:41.067Z,23.71
2018-07-26T23:14:11.649Z,23.76
2018-07-26T23:16:41.909Z,23.68
2018-07-26T23:19:13.086Z,23.60
2018-07-26T23:21:42.816Z,23.58
2018-07-26T23:24:12.721Z,23.53
2018-07-26T23:26:42.455Z,23.47
2018-07-26T23:29:11.791Z,23.36
2018-07-26T23:31:41.525Z,23.26
2018-07-26T23:34:11.355Z,23.20
2018-07-26T23:36:41.031Z,23.17
2018-07-26T23:39:12.293Z,23.12
2018-07-26T23:41:42.026Z,23.05
2018-07-26T23:44:11.829Z,22.96
2018-07-26T23:46:41.541Z,22.87
2018-07-26T23:49:11.361Z,22.81
2018-07-26T23:51:41.073Z,22.69
2018-07-26T23:54:10.898Z,22.60
2018-07-26T23:56:40.607Z,22.56
2018-07-26T23:59:10.406Z,22.45
